Whitehall, Wisconsin
Current Conditions -  °F | °C
As of 7:55 AM on Wednesday 28 Jan 2015 (Local Time) from KBCK Reporting Station
Haze Haze  
Wind Chill: 19°   Ceiling: 900
Heat Index: 27°   Visibility: 4mi
Dew Point: 23°   Wind: 7mph
Humidity: 87%   Direction: 150°SSE
Pressure: 30.12"   Gusts: NA
Location:  44.37°N, 91.32°W
Report Text: KBCK 281355Z AUTO 15006KT 130V190 4SM BR OVC009 M03/M05 A3012 RMK AO2 T10301049
Loading
Personal Weather Stations






























Interactive Weather Map New forecast layout! Learn more

10-Day Weather Forecast

Advertisements
Track Severe Weather on mobile